METAR Data
IDs: Format: Raw Decoded Include TAF

Data at: 0939 UTC 07 Dec 2021

METAR for:LFQA (Reims/Prunay Aprt, GE, FR)
Text:LFQA 070930Z AUTO 14006KT 110V170 9999 BKN007 04/03 Q1012
Temperature: 4.0°C ( 39°F)
Dewpoint: 3.0°C ( 37°F) [RH = 93%]
Pressure (altimeter):29.88 inches Hg (1012.0 mb)
Winds:from the SE (140 degrees) at 7 MPH (6 knots; 3.1 m/s)
Visibility:6 or more sm (10+ km)
Ceiling:700 feet AGL
Clouds: broken clouds at 700 feet AGL

TAF for:LFQA (Reims/Prunay Aprt, GE, FR)
Text:No data found